createdAt,value
2019-03-15T00:00:06.201Z,0.00
2019-03-15T00:01:06.201Z,0.00
2019-03-15T00:02:59.096Z,0.00
2019-03-15T00:03:59.106Z,0.00
2019-03-15T00:05:52.504Z,0.00
2019-03-15T00:06:52.509Z,0.00
2019-03-15T00:08:45.405Z,0.00
2019-03-15T00:09:45.414Z,0.00
2019-03-15T00:11:38.322Z,0.00
2019-03-15T00:12:38.324Z,0.00
2019-03-15T00:14:31.225Z,0.00
2019-03-15T00:15:31.230Z,0.00
2019-03-15T00:17:24.618Z,0.00
2019-03-15T00:18:24.630Z,0.00
2019-03-15T00:20:17.537Z,0.00
2019-03-15T00:21:17.538Z,0.00
2019-03-15T00:23:10.435Z,0.00
2019-03-15T00:24:10.444Z,0.00
2019-03-15T00:26:03.841Z,0.00
2019-03-15T00:27:03.844Z,0.00
2019-03-15T00:28:56.743Z,0.00
2019-03-15T00:29:56.753Z,0.00
2019-03-15T00:31:49.659Z,0.00
2019-03-15T00:32:49.662Z,0.00
2019-03-15T00:34:42.820Z,0.00
2019-03-15T00:35:42.568Z,0.00
2019-03-15T00:37:35.463Z,0.00
2019-03-15T00:38:35.474Z,0.00
2019-03-15T00:40:28.872Z,0.00
2019-03-15T00:41:28.875Z,0.00
2019-03-15T00:43:21.770Z,0.00
2019-03-15T00:44:21.779Z,0.00
2019-03-15T00:46:14.685Z,0.00
2019-03-15T00:47:14.688Z,0.00
2019-03-15T00:49:07.585Z,0.00
2019-03-15T00:50:07.594Z,0.00
2019-03-15T00:52:00.669Z,0.00
2019-03-15T00:53:00.504Z,0.00
2019-03-15T00:54:53.902Z,0.00
2019-03-15T00:55:53.905Z,0.00
2019-03-15T00:57:46.801Z,0.00
2019-03-15T00:58:46.811Z,0.00
2019-03-15T01:00:40.208Z,0.00
2019-03-15T01:01:40.211Z,0.00
2019-03-15T01:03:33.603Z,0.00
2019-03-15T01:04:33.613Z,0.00
2019-03-15T01:06:26.516Z,0.00
2019-03-15T01:07:26.521Z,0.00
2019-03-15T01:09:19.420Z,0.00
2019-03-15T01:10:19.428Z,0.00
2019-03-15T01:12:12.331Z,0.00
2019-03-15T01:13:12.331Z,0.00
2019-03-15T01:15:05.237Z,0.00
2019-03-15T01:16:05.239Z,0.00
2019-03-15T01:17:58.630Z,0.00
2019-03-15T01:18:58.640Z,0.00
2019-03-15T01:20:51.544Z,0.00
2019-03-15T01:21:51.545Z,0.00
2019-03-15T01:23:44.443Z,0.00
2019-03-15T01:24:44.455Z,0.00
2019-03-15T01:26:37.359Z,0.00
2019-03-15T01:27:37.361Z,0.00
2019-03-15T01:29:30.259Z,0.00
2019-03-15T01:30:30.275Z,0.00
2019-03-15T01:32:23.170Z,0.00
2019-03-15T01:33:23.176Z,0.00
2019-03-15T01:35:16.076Z,0.00
2019-03-15T01:36:16.082Z,0.00
2019-03-15T01:38:08.974Z,0.00
2019-03-15T01:39:10.070Z,0.00
2019-03-15T01:41:02.385Z,0.00
2019-03-15T01:42:02.386Z,0.00
2019-03-15T01:43:55.280Z,0.00
2019-03-15T01:44:55.289Z,0.00
2019-03-15T01:46:48.197Z,0.00
2019-03-15T01:47:48.200Z,0.00
2019-03-15T01:49:44.344Z,0.00
2019-03-15T01:50:41.113Z,0.00
2019-03-15T01:52:34.008Z,0.00
2019-03-15T01:53:34.015Z,0.00
2019-03-15T01:55:26.912Z,0.00
2019-03-15T01:56:26.914Z,0.00
2019-03-15T01:58:19.811Z,0.00
2019-03-15T01:59:19.823Z,0.00
2019-03-15T02:01:12.732Z,0.00
2019-03-15T02:02:12.729Z,0.00
2019-03-15T02:04:05.839Z,0.00
2019-03-15T02:05:05.635Z,0.00
2019-03-15T02:06:59.033Z,0.00
2019-03-15T02:07:59.082Z,0.00
2019-03-15T02:09:51.932Z,0.00
2019-03-15T02:10:51.943Z,0.00
2019-03-15T02:12:44.844Z,0.00
2019-03-15T02:13:44.848Z,0.00
2019-03-15T02:15:37.765Z,0.00
2019-03-15T02:16:37.754Z,0.00
2019-03-15T02:18:31.144Z,0.00
2019-03-15T02:19:31.155Z,0.00
2019-03-15T02:21:24.552Z,0.00
2019-03-15T02:22:24.557Z,0.00
2019-03-15T02:24:17.455Z,0.00
2019-03-15T02:25:17.460Z,0.00
2019-03-15T02:27:11.362Z,0.00
2019-03-15T02:28:11.362Z,0.00
2019-03-15T02:30:04.258Z,0.00
2019-03-15T02:31:04.267Z,0.00
2019-03-15T02:32:57.665Z,0.00
2019-03-15T02:33:57.669Z,0.00
2019-03-15T02:35:50.575Z,0.00
2019-03-15T02:36:50.572Z,0.00
2019-03-15T02:38:43.965Z,0.00
2019-03-15T02:39:43.976Z,0.00
2019-03-15T02:41:36.884Z,0.00
2019-03-15T02:42:36.887Z,0.00
2019-03-15T02:44:29.780Z,0.00
2019-03-15T02:45:29.791Z,0.00
2019-03-15T02:47:22.696Z,0.00
2019-03-15T02:48:22.698Z,0.00
2019-03-15T02:50:15.594Z,0.00
2019-03-15T02:51:15.606Z,0.00
2019-03-15T02:53:09.069Z,0.00
2019-03-15T02:54:08.508Z,0.00
2019-03-15T02:56:01.909Z,0.00
2019-03-15T02:57:01.909Z,0.00
2019-03-15T02:58:54.818Z,0.00
2019-03-15T02:59:54.817Z,0.00
2019-03-15T03:01:47.721Z,0.00
2019-03-15T03:02:47.773Z,0.00
2019-03-15T03:04:41.338Z,0.00
2019-03-15T03:05:41.123Z,0.00
2019-03-15T03:07:34.032Z,0.00
2019-03-15T03:08:34.040Z,0.00
2019-03-15T03:10:26.937Z,0.00
2019-03-15T03:11:26.940Z,0.00
2019-03-15T03:13:20.341Z,0.00
2019-03-15T03:14:20.345Z,0.00
2019-03-15T03:16:13.251Z,0.00
2019-03-15T03:17:13.822Z,0.00
2019-03-15T03:19:06.148Z,0.00
2019-03-15T03:20:06.154Z,0.00
2019-03-15T03:21:59.553Z,0.00
2019-03-15T03:22:59.563Z,0.00
2019-03-15T03:24:52.454Z,0.00
2019-03-15T03:25:52.462Z,0.00
2019-03-15T03:27:45.367Z,0.00
2019-03-15T03:28:45.370Z,0.00
2019-03-15T03:30:38.269Z,0.00
2019-03-15T03:31:38.278Z,0.00
2019-03-15T03:33:31.194Z,0.00
2019-03-15T03:34:31.187Z,0.00
2019-03-15T03:36:24.089Z,0.00
2019-03-15T03:37:24.240Z,0.00
2019-03-15T03:39:17.484Z,0.00
2019-03-15T03:40:20.150Z,0.00
2019-03-15T03:42:10.394Z,0.00
2019-03-15T03:43:10.443Z,0.00
2019-03-15T03:45:03.298Z,0.00
2019-03-15T03:46:03.320Z,0.00
2019-03-15T03:47:56.212Z,0.00
2019-03-15T03:48:56.215Z,0.00
2019-03-15T03:50:49.112Z,0.00
2019-03-15T03:51:49.121Z,0.00
2019-03-15T03:53:42.028Z,0.00
2019-03-15T03:54:42.033Z,0.00
2019-03-15T03:56:34.933Z,0.00
2019-03-15T03:57:34.956Z,0.00
2019-03-15T03:59:27.836Z,0.00
2019-03-15T04:00:27.892Z,0.00
2019-03-15T04:02:20.897Z,0.00
2019-03-15T04:03:20.747Z,0.00
2019-03-15T04:05:14.141Z,0.00
2019-03-15T04:06:14.152Z,0.00
2019-03-15T04:08:07.545Z,0.00
2019-03-15T04:09:07.551Z,0.00
2019-03-15T04:11:00.845Z,0.00
2019-03-15T04:12:00.459Z,0.00
2019-03-15T04:13:53.365Z,0.00
2019-03-15T04:14:53.365Z,0.00
2019-03-15T04:16:46.267Z,0.00
2019-03-15T04:17:46.272Z,0.00
2019-03-15T04:19:39.165Z,0.00
2019-03-15T04:20:39.175Z,0.00
2019-03-15T04:22:32.085Z,0.00
2019-03-15T04:23:32.085Z,0.00
2019-03-15T04:25:24.982Z,0.00
2019-03-15T04:26:24.991Z,0.00
2019-03-15T04:28:17.897Z,0.00
2019-03-15T04:29:17.899Z,0.00
2019-03-15T04:31:10.797Z,0.00
2019-03-15T04:32:10.809Z,0.00
2019-03-15T04:34:03.714Z,0.00
2019-03-15T04:35:03.714Z,0.00
2019-03-15T04:36:56.617Z,0.00
2019-03-15T04:37:56.621Z,0.00
2019-03-15T04:39:49.520Z,0.00
2019-03-15T04:40:49.530Z,0.00
2019-03-15T04:42:42.431Z,0.00
2019-03-15T04:43:42.437Z,0.00
2019-03-15T04:45:35.330Z,0.00
2019-03-15T04:46:35.339Z,0.00
2019-03-15T04:48:28.241Z,0.00
2019-03-15T04:49:28.244Z,0.00
2019-03-15T04:51:21.145Z,0.00
2019-03-15T04:52:21.153Z,0.00
2019-03-15T04:54:14.555Z,0.00
2019-03-15T04:55:14.555Z,0.00
2019-03-15T04:57:07.632Z,0.00
2019-03-15T04:58:07.463Z,0.00
2019-03-15T05:00:00.408Z,0.00
2019-03-15T05:01:00.369Z,0.00
2019-03-15T05:02:53.273Z,0.00
2019-03-15T05:03:53.276Z,0.00
2019-03-15T05:05:46.667Z,0.00
2019-03-15T05:06:46.678Z,0.00
2019-03-15T05:08:39.596Z,0.00
2019-03-15T05:09:39.585Z,0.00
2019-03-15T05:11:32.493Z,0.00
2019-03-15T05:12:32.495Z,0.00
2019-03-15T05:14:25.893Z,0.00
2019-03-15T05:15:25.899Z,0.00
2019-03-15T05:17:18.818Z,0.00
2019-03-15T05:18:18.809Z,4.00
2019-03-15T05:20:11.707Z,0.00
2019-03-15T05:21:11.713Z,0.00
2019-03-15T05:23:04.628Z,4.00
2019-03-15T05:24:04.622Z,4.00
2019-03-15T05:25:57.523Z,4.00
2019-03-15T05:26:57.740Z,4.00
2019-03-15T05:28:50.435Z,12.00
2019-03-15T05:29:50.438Z,16.00
2019-03-15T05:31:43.407Z,20.00
2019-03-15T05:32:43.385Z,28.00
2019-03-15T05:34:36.292Z,32.00
2019-03-15T05:35:36.299Z,36.00
2019-03-15T05:37:29.217Z,36.00
2019-03-15T05:38:29.203Z,44.00
2019-03-15T05:40:22.105Z,44.00
2019-03-15T05:41:22.254Z,48.00
2019-03-15T05:43:15.019Z,56.00
2019-03-15T05:44:15.026Z,60.00
2019-03-15T05:46:07.923Z,76.00
2019-03-15T05:47:07.930Z,72.00
2019-03-15T05:49:00.837Z,104.00
2019-03-15T05:50:00.840Z,112.00
2019-03-15T05:51:53.743Z,132.00
2019-03-15T05:52:53.750Z,160.00
2019-03-15T05:54:46.653Z,184.00
2019-03-15T05:55:46.658Z,160.00
2019-03-15T05:57:39.557Z,184.00
2019-03-15T05:58:39.567Z,204.00
2019-03-15T06:00:32.471Z,264.00
2019-03-15T06:01:32.474Z,360.00
2019-03-15T06:03:25.378Z,536.00
2019-03-15T06:04:25.383Z,580.00
2019-03-15T06:06:18.279Z,636.00
2019-03-15T06:07:18.287Z,648.00
2019-03-15T06:09:11.198Z,708.00
2019-03-15T06:10:11.199Z,720.00
2019-03-15T06:12:04.101Z,732.00
2019-03-15T06:13:04.110Z,764.00
2019-03-15T06:14:57.013Z,768.00
2019-03-15T06:15:57.017Z,772.00
2019-03-15T06:17:49.923Z,768.00
2019-03-15T06:18:49.923Z,780.00
2019-03-15T06:20:42.831Z,816.00
2019-03-15T06:21:42.834Z,816.00
2019-03-15T06:23:35.740Z,748.00
2019-03-15T06:24:35.742Z,708.00
2019-03-15T06:26:29.146Z,728.00
2019-03-15T06:27:31.189Z,768.00
2019-03-15T06:29:22.063Z,828.00
2019-03-15T06:30:22.070Z,856.00
2019-03-15T06:32:14.991Z,1004.00
2019-03-15T06:33:14.980Z,1112.00
2019-03-15T06:35:07.886Z,1264.00
2019-03-15T06:36:07.890Z,1188.00
2019-03-15T06:38:00.784Z,1296.00
2019-03-15T06:39:00.796Z,1456.00
2019-03-15T06:40:53.700Z,1712.00
2019-03-15T06:41:53.798Z,1836.00
2019-03-15T06:43:46.612Z,1904.00
2019-03-15T06:44:57.404Z,1928.00
2019-03-15T06:46:39.511Z,1920.00
2019-03-15T06:47:39.520Z,1932.00
2019-03-15T06:49:32.425Z,1972.00
2019-03-15T06:50:32.429Z,2008.00
2019-03-15T06:52:25.335Z,2056.00
2019-03-15T06:53:25.339Z,2108.00
2019-03-15T06:55:18.248Z,2256.00
2019-03-15T06:56:18.249Z,2372.00
2019-03-15T06:58:11.146Z,2676.00
2019-03-15T06:59:11.158Z,2760.00
2019-03-15T07:01:04.566Z,2768.00
2019-03-15T07:02:04.569Z,2716.00
2019-03-15T07:03:57.474Z,2660.00
2019-03-15T07:04:57.477Z,2676.00
2019-03-15T07:06:50.886Z,2688.00
2019-03-15T07:07:50.897Z,2656.00
2019-03-15T07:09:44.308Z,2604.00
2019-03-15T07:10:44.510Z,2552.00
2019-03-15T07:12:39.943Z,2536.00
2019-03-15T07:13:37.212Z,2676.00
2019-03-15T07:15:30.614Z,2872.00
2019-03-15T07:16:30.618Z,2864.00
2019-03-15T07:18:24.018Z,2804.00
2019-03-15T07:19:27.518Z,2732.00
2019-03-15T07:21:17.433Z,2576.00
2019-03-15T07:22:19.869Z,2548.00
2019-03-15T07:24:10.359Z,2604.00
2019-03-15T07:25:10.373Z,2580.00
2019-03-15T07:27:12.958Z,2032.00
2019-03-15T07:28:03.261Z,1812.00
2019-03-15T07:29:59.825Z,1840.00
2019-03-15T07:30:56.671Z,1824.00
2019-03-15T07:32:49.571Z,2044.00
2019-03-15T07:33:49.739Z,2136.00
2019-03-15T07:35:42.975Z,2396.00
2019-03-15T07:36:42.981Z,2440.00
2019-03-15T07:38:36.374Z,2532.00
2019-03-15T07:39:36.384Z,2628.00
2019-03-15T07:41:29.289Z,2752.00
2019-03-15T07:42:29.292Z,2788.00
2019-03-15T07:44:22.200Z,2796.00
2019-03-15T07:45:22.203Z,2656.00
2019-03-15T07:47:15.109Z,2348.00
2019-03-15T07:48:22.460Z,2180.00
2019-03-15T07:50:08.516Z,2056.00
2019-03-15T07:51:08.523Z,2168.00
2019-03-15T07:53:01.429Z,2444.00
2019-03-15T07:54:01.441Z,2516.00
2019-03-15T07:55:54.349Z,2480.00
2019-03-15T07:56:54.351Z,2624.00
2019-03-15T07:58:47.750Z,2736.00
2019-03-15T07:59:47.765Z,2828.00
2019-03-15T08:01:40.671Z,2912.00
2019-03-15T08:02:40.672Z,2944.00
2019-03-15T08:04:36.015Z,2868.00
2019-03-15T08:05:33.584Z,2820.00
2019-03-15T08:07:35.704Z,2928.00
2019-03-15T08:08:26.517Z,2980.00
2019-03-15T08:10:19.407Z,3080.00
2019-03-15T08:11:19.412Z,3076.00
2019-03-15T08:13:12.313Z,3016.00
2019-03-15T08:14:12.324Z,3024.00
2019-03-15T08:16:05.733Z,3052.00
2019-03-15T08:17:05.734Z,3200.00
2019-03-15T08:18:58.638Z,2740.00
2019-03-15T08:19:58.647Z,2500.00
2019-03-15T08:21:51.556Z,2956.00
2019-03-15T08:22:51.558Z,2972.00
2019-03-15T08:24:51.325Z,3160.00
2019-03-15T08:25:44.967Z,3020.00
2019-03-15T08:27:37.874Z,2812.00
2019-03-15T08:28:37.880Z,2532.00
2019-03-15T08:30:30.786Z,3712.00
2019-03-15T08:31:30.789Z,3652.00
2019-03-15T08:33:23.692Z,2688.00
2019-03-15T08:34:23.701Z,2956.00
2019-03-15T08:36:20.113Z,4368.00
2019-03-15T08:37:17.109Z,4020.00
2019-03-15T08:39:10.012Z,3720.00
2019-03-15T08:40:10.021Z,3212.00
2019-03-15T08:42:03.425Z,3228.00
2019-03-15T08:43:03.431Z,3284.00
2019-03-15T08:44:56.342Z,2684.00
2019-03-15T08:45:56.343Z,2984.00
2019-03-15T08:47:49.247Z,3676.00
2019-03-15T08:48:49.258Z,3856.00
2019-03-15T08:50:42.174Z,3840.00
2019-03-15T08:51:42.171Z,3780.00
2019-03-15T08:53:35.072Z,3032.00
2019-03-15T08:54:35.085Z,2916.00
2019-03-15T08:56:28.487Z,2972.00
2019-03-15T08:57:28.493Z,2692.00
2019-03-15T08:59:21.397Z,2628.00
2019-03-15T09:00:21.408Z,2432.00
2019-03-15T09:02:14.814Z,2796.00
2019-03-15T09:03:27.318Z,2868.00
2019-03-15T09:05:08.223Z,2660.00
2019-03-15T09:06:08.227Z,2208.00
2019-03-15T09:08:01.622Z,2632.00
2019-03-15T09:09:01.635Z,2420.00
2019-03-15T09:10:54.545Z,2920.00
2019-03-15T09:11:54.548Z,3832.00
2019-03-15T09:13:49.309Z,4364.00
2019-03-15T09:14:47.955Z,3672.00
2019-03-15T09:16:41.358Z,4312.00
2019-03-15T09:17:41.378Z,4196.00
2019-03-15T09:19:34.266Z,3388.00
2019-03-15T09:20:34.280Z,4376.00
2019-03-15T09:22:27.191Z,3988.00
2019-03-15T09:23:27.197Z,3892.00
2019-03-15T09:25:20.848Z,3404.00
2019-03-15T09:26:20.114Z,3228.00
2019-03-15T09:28:13.011Z,3304.00
2019-03-15T09:29:13.023Z,3444.00
2019-03-15T09:31:07.540Z,3520.00
2019-03-15T09:32:09.182Z,3692.00
2019-03-15T09:33:58.843Z,3312.00
2019-03-15T09:34:58.938Z,3208.00
2019-03-15T09:36:51.766Z,3304.00
2019-03-15T09:37:51.768Z,3380.00
2019-03-15T09:39:44.670Z,3564.00
2019-03-15T09:40:44.681Z,3696.00
2019-03-15T09:42:38.084Z,3936.00
2019-03-15T09:43:38.090Z,4644.00
2019-03-15T09:45:30.999Z,5168.00
2019-03-15T09:46:31.004Z,4304.00
2019-03-15T09:48:24.401Z,4020.00
2019-03-15T09:49:24.413Z,3428.00
2019-03-15T09:51:17.817Z,2432.00
2019-03-15T09:52:17.820Z,2420.00
2019-03-15T09:54:11.219Z,2316.00
2019-03-15T09:55:11.232Z,2160.00
2019-03-15T09:57:04.152Z,2288.00
2019-03-15T09:58:04.148Z,2952.00
2019-03-15T09:59:57.547Z,2812.00
2019-03-15T10:00:57.947Z,1988.00
2019-03-15T10:02:50.962Z,2028.00
2019-03-15T10:03:50.968Z,2156.00
2019-03-15T10:05:44.369Z,2260.00
2019-03-15T10:06:44.373Z,2176.00
2019-03-15T10:08:37.770Z,2216.00
2019-03-15T10:09:45.819Z,2140.00
2019-03-15T10:11:31.186Z,2288.00
2019-03-15T10:12:31.194Z,2148.00
2019-03-15T10:14:24.589Z,2468.00
2019-03-15T10:15:26.351Z,1728.00
2019-03-15T10:17:17.513Z,1436.00
2019-03-15T10:18:17.516Z,1324.00
2019-03-15T10:20:12.508Z,1356.00
2019-03-15T10:21:10.431Z,1488.00
2019-03-15T10:23:06.322Z,2696.00
2019-03-15T10:24:03.346Z,3380.00
2019-03-15T10:25:56.258Z,3896.00
2019-03-15T10:26:56.258Z,3028.00
2019-03-15T10:28:49.655Z,3592.00
2019-03-15T10:29:49.667Z,3348.00
2019-03-15T10:31:42.581Z,3188.00
2019-03-15T10:32:42.583Z,3128.00
2019-03-15T10:34:35.864Z,3540.00
2019-03-15T10:35:35.495Z,3232.00
2019-03-15T10:37:28.412Z,3320.00
2019-03-15T10:38:28.411Z,3000.00
2019-03-15T10:40:21.812Z,3068.00
2019-03-15T10:41:21.823Z,2828.00
2019-03-15T10:43:15.236Z,2800.00
2019-03-15T10:44:15.243Z,3452.00
2019-03-15T10:46:08.152Z,3344.00
2019-03-15T10:47:08.176Z,2920.00
2019-03-15T10:49:01.554Z,3252.00
2019-03-15T10:50:01.565Z,3436.00
2019-03-15T10:51:54.990Z,3736.00
2019-03-15T10:52:54.974Z,3800.00
2019-03-15T10:54:48.384Z,3620.00
2019-03-15T10:55:59.639Z,4072.00
2019-03-15T10:57:41.299Z,4040.00
2019-03-15T10:58:41.304Z,3840.00
2019-03-15T11:00:34.210Z,3532.00
2019-03-15T11:01:34.219Z,3424.00
2019-03-15T11:03:27.131Z,2636.00
2019-03-15T11:04:27.136Z,3028.00
2019-03-15T11:06:20.049Z,2760.00
2019-03-15T11:07:20.055Z,3556.00
2019-03-15T11:09:13.451Z,4168.00
2019-03-15T11:10:13.467Z,4388.00
2019-03-15T11:12:06.373Z,3720.00
2019-03-15T11:13:06.377Z,3572.00
2019-03-15T11:14:59.292Z,3148.00
2019-03-15T11:15:59.293Z,2828.00
2019-03-15T11:17:52.209Z,4212.00
2019-03-15T11:18:52.216Z,5296.00
2019-03-15T11:20:45.611Z,4512.00
2019-03-15T11:21:45.626Z,4120.00
2019-03-15T11:23:38.536Z,3712.00
2019-03-15T11:24:38.539Z,4504.00
2019-03-15T11:26:31.946Z,4792.00
2019-03-15T11:27:31.954Z,4200.00
2019-03-15T11:29:25.349Z,5652.00
2019-03-15T11:30:25.363Z,6132.00
2019-03-15T11:32:18.276Z,6184.00
2019-03-15T11:33:18.280Z,7432.00
2019-03-15T11:35:11.183Z,6580.00
2019-03-15T11:36:11.193Z,8052.00
2019-03-15T11:38:04.105Z,7976.00
2019-03-15T11:39:04.113Z,8784.00
2019-03-15T11:40:57.510Z,8996.00
2019-03-15T11:41:57.524Z,9108.00
2019-03-15T11:43:50.435Z,8192.00
2019-03-15T11:44:50.441Z,9212.00
2019-03-15T11:46:43.851Z,6224.00
2019-03-15T11:48:01.770Z,7960.00
2019-03-15T11:49:36.763Z,9300.00
2019-03-15T11:50:36.775Z,10748.00
2019-03-15T11:52:29.689Z,10416.00
2019-03-15T11:53:29.694Z,8068.00
2019-03-15T11:55:22.598Z,8624.00
2019-03-15T11:56:27.192Z,8816.00
2019-03-15T11:58:15.533Z,6316.00
2019-03-15T11:59:15.532Z,6044.00
2019-03-15T12:01:08.938Z,8848.00
2019-03-15T12:02:10.759Z,10252.00
2019-03-15T12:04:01.862Z,10412.00
2019-03-15T12:05:01.874Z,10380.00
2019-03-15T12:06:55.276Z,10928.00
2019-03-15T12:07:55.300Z,8808.00
2019-03-15T12:09:48.196Z,10640.00
2019-03-15T12:10:48.213Z,9724.00
2019-03-15T12:12:41.613Z,7316.00
2019-03-15T12:13:41.622Z,7900.00
2019-03-15T12:15:36.295Z,10328.00
2019-03-15T12:16:35.039Z,9576.00
2019-03-15T12:18:27.954Z,9960.00
2019-03-15T12:19:27.961Z,10876.00
2019-03-15T12:21:20.870Z,10740.00
2019-03-15T12:22:20.883Z,10320.00
2019-03-15T12:24:14.294Z,8116.00
2019-03-15T12:25:14.300Z,6568.00
2019-03-15T12:27:07.219Z,8364.00
2019-03-15T12:28:07.227Z,7684.00
2019-03-15T12:30:00.385Z,6796.00
2019-03-15T12:31:00.150Z,6564.00
2019-03-15T12:32:53.065Z,4504.00
2019-03-15T12:33:53.080Z,3016.00
2019-03-15T12:35:45.982Z,3380.00
2019-03-15T12:36:45.996Z,4292.00
2019-03-15T12:38:38.913Z,3104.00
2019-03-15T12:39:38.969Z,3016.00
2019-03-15T12:41:31.831Z,2960.00
2019-03-15T12:42:31.845Z,3320.00
2019-03-15T12:44:24.763Z,5836.00
2019-03-15T12:45:24.770Z,7504.00
2019-03-15T12:47:18.182Z,3696.00
2019-03-15T12:48:18.198Z,3332.00
2019-03-15T12:50:11.593Z,4352.00
2019-03-15T12:51:11.613Z,3436.00
2019-03-15T12:53:05.021Z,1884.00
2019-03-15T12:54:05.032Z,2088.00
2019-03-15T12:55:58.437Z,2412.00
2019-03-15T12:56:58.446Z,2456.00
2019-03-15T12:58:51.876Z,2892.00
2019-03-15T12:59:51.861Z,3904.00
2019-03-15T13:01:45.262Z,2556.00
2019-03-15T13:02:45.281Z,2104.00
2019-03-15T13:04:38.775Z,4272.00
2019-03-15T13:05:38.695Z,5324.00
2019-03-15T13:07:32.103Z,4112.00
2019-03-15T13:08:32.108Z,4212.00
2019-03-15T13:10:25.515Z,3108.00
2019-03-15T13:11:25.523Z,3224.00
2019-03-15T13:13:18.928Z,3124.00
2019-03-15T13:14:18.962Z,2968.00
2019-03-15T13:16:12.349Z,4396.00
2019-03-15T13:17:12.356Z,2732.00
2019-03-15T13:19:05.767Z,2652.00
2019-03-15T13:20:05.777Z,2736.00
2019-03-15T13:21:59.186Z,2640.00
2019-03-15T13:22:59.203Z,3740.00
2019-03-15T13:24:52.614Z,4412.00
2019-03-15T13:25:54.705Z,5920.00
2019-03-15T13:27:46.025Z,5724.00
2019-03-15T13:28:46.034Z,6732.00
2019-03-15T13:30:39.437Z,4388.00
2019-03-15T13:31:39.452Z,4424.00
2019-03-15T13:33:32.882Z,2668.00
2019-03-15T13:34:32.865Z,2688.00
2019-03-15T13:36:26.265Z,3320.00
2019-03-15T13:37:26.280Z,3984.00
2019-03-15T13:39:19.687Z,5352.00
2019-03-15T13:40:19.697Z,5740.00
2019-03-15T13:42:13.096Z,4592.00
2019-03-15T13:43:13.111Z,3580.00
2019-03-15T13:45:06.568Z,3424.00
2019-03-15T13:46:06.527Z,2524.00
2019-03-15T13:47:59.935Z,2712.00
2019-03-15T13:48:59.947Z,2640.00
2019-03-15T13:50:53.350Z,3468.00
2019-03-15T13:51:53.357Z,4248.00
2019-03-15T13:53:46.764Z,2644.00
2019-03-15T13:54:46.772Z,3084.00
2019-03-15T13:56:40.173Z,4372.00
2019-03-15T13:57:40.188Z,4736.00
2019-03-15T13:59:33.098Z,3244.00
2019-03-15T14:00:33.106Z,4228.00
2019-03-15T14:02:26.010Z,3264.00
2019-03-15T14:03:26.025Z,4012.00
2019-03-15T14:05:18.942Z,4288.00
2019-03-15T14:06:18.940Z,3168.00
2019-03-15T14:08:12.314Z,2296.00
2019-03-15T14:09:11.857Z,2308.00
2019-03-15T14:11:04.767Z,3224.00
2019-03-15T14:12:04.775Z,3552.00
2019-03-15T14:13:57.699Z,1832.00
2019-03-15T14:14:57.695Z,1388.00
2019-03-15T14:16:50.648Z,1696.00
2019-03-15T14:17:50.620Z,1276.00
2019-03-15T14:19:43.537Z,1352.00
2019-03-15T14:20:43.546Z,1204.00
2019-03-15T14:22:36.446Z,1520.00
2019-03-15T14:23:36.482Z,1328.00
2019-03-15T14:25:29.380Z,1780.00
2019-03-15T14:26:29.381Z,1680.00
2019-03-15T14:28:22.291Z,1964.00
2019-03-15T14:29:22.300Z,1648.00
2019-03-15T14:31:15.205Z,616.00
2019-03-15T14:32:15.218Z,496.00
2019-03-15T14:34:08.134Z,812.00
2019-03-15T14:35:08.137Z,812.00
2019-03-15T14:37:01.204Z,940.00
2019-03-15T14:38:01.056Z,1212.00
2019-03-15T14:39:54.271Z,1768.00
2019-03-15T14:40:54.055Z,1684.00
2019-03-15T14:42:47.565Z,1960.00
2019-03-15T14:43:47.473Z,2300.00
2019-03-15T14:45:40.867Z,2400.00
2019-03-15T14:46:40.871Z,2172.00
2019-03-15T14:48:34.381Z,3084.00
2019-03-15T14:49:34.284Z,4004.00
2019-03-15T14:51:27.684Z,3904.00
2019-03-15T14:52:27.693Z,3812.00
2019-03-15T14:54:21.099Z,3588.00
2019-03-15T14:55:21.107Z,3704.00
2019-03-15T14:57:14.504Z,4104.00
2019-03-15T14:58:14.517Z,3796.00
2019-03-15T15:00:10.917Z,3524.00
2019-03-15T15:01:07.927Z,3336.00
2019-03-15T15:03:01.346Z,3092.00
2019-03-15T15:04:01.346Z,2948.00
2019-03-15T15:05:54.761Z,2104.00
2019-03-15T15:06:54.754Z,1752.00
2019-03-15T15:08:48.157Z,1300.00
2019-03-15T15:09:48.167Z,1248.00
2019-03-15T15:11:41.558Z,972.00
2019-03-15T15:12:41.576Z,916.00
2019-03-15T15:14:34.977Z,1304.00
2019-03-15T15:15:34.979Z,1844.00
2019-03-15T15:17:28.376Z,1936.00
2019-03-15T15:18:28.401Z,1240.00
2019-03-15T15:20:21.806Z,1432.00
2019-03-15T15:21:21.805Z,1496.00
2019-03-15T15:23:15.205Z,1536.00
2019-03-15T15:24:15.219Z,2000.00
2019-03-15T15:26:08.628Z,2464.00
2019-03-15T15:27:08.633Z,2620.00
2019-03-15T15:29:02.045Z,2124.00
2019-03-15T15:30:02.054Z,2372.00
2019-03-15T15:31:54.962Z,3048.00
2019-03-15T15:32:54.965Z,2684.00
2019-03-15T15:34:48.376Z,1972.00
2019-03-15T15:35:48.393Z,1668.00
2019-03-15T15:37:41.771Z,2552.00
2019-03-15T15:38:41.783Z,2744.00
2019-03-15T15:40:35.185Z,1672.00
2019-03-15T15:41:35.191Z,1544.00
2019-03-15T15:43:28.610Z,1916.00
2019-03-15T15:44:28.600Z,1880.00
2019-03-15T15:46:21.997Z,2364.00
2019-03-15T15:47:22.007Z,2740.00
2019-03-15T15:49:15.420Z,2932.00
2019-03-15T15:50:15.421Z,2540.00
2019-03-15T15:52:08.814Z,1980.00
2019-03-15T15:53:11.121Z,2276.00
2019-03-15T15:55:02.228Z,2568.00
2019-03-15T15:56:02.237Z,2668.00
2019-03-15T15:57:55.135Z,2628.00
2019-03-15T15:58:55.146Z,2500.00
2019-03-15T16:00:48.058Z,2276.00
2019-03-15T16:01:48.061Z,2596.00
2019-03-15T16:03:40.961Z,2432.00
2019-03-15T16:04:40.976Z,2484.00
2019-03-15T16:06:33.885Z,2364.00
2019-03-15T16:07:33.888Z,2180.00
2019-03-15T16:09:26.795Z,2128.00
2019-03-15T16:10:26.805Z,2280.00
2019-03-15T16:12:19.702Z,2228.00
2019-03-15T16:13:19.719Z,2008.00
2019-03-15T16:15:12.624Z,1680.00
2019-03-15T16:16:12.629Z,1472.00
2019-03-15T16:18:05.639Z,1096.00
2019-03-15T16:19:05.631Z,1104.00
2019-03-15T16:20:58.477Z,1552.00
2019-03-15T16:21:58.458Z,1776.00
2019-03-15T16:23:51.360Z,1816.00
2019-03-15T16:24:51.370Z,1852.00
2019-03-15T16:26:44.781Z,1872.00
2019-03-15T16:27:44.789Z,1896.00
2019-03-15T16:29:38.188Z,1876.00
2019-03-15T16:30:38.193Z,1824.00
2019-03-15T16:32:31.589Z,1716.00
2019-03-15T16:33:31.601Z,1696.00
2019-03-15T16:35:24.511Z,1648.00
2019-03-15T16:36:24.514Z,1588.00
2019-03-15T16:38:17.413Z,1524.00
2019-03-15T16:39:17.427Z,1540.00
2019-03-15T16:41:10.329Z,1512.00
2019-03-15T16:42:10.336Z,1460.00
2019-03-15T16:44:03.238Z,1344.00
2019-03-15T16:45:03.265Z,1288.00
2019-03-15T16:46:56.158Z,1248.00
2019-03-15T16:47:56.173Z,1256.00
2019-03-15T16:49:49.072Z,1236.00
2019-03-15T16:50:51.716Z,1216.00
2019-03-15T16:52:41.988Z,1144.00
2019-03-15T16:53:42.004Z,1100.00
2019-03-15T16:55:35.434Z,1032.00
2019-03-15T16:56:35.416Z,992.00
2019-03-15T16:58:29.411Z,912.00
2019-03-15T16:59:29.325Z,864.00
2019-03-15T17:01:22.232Z,800.00
2019-03-15T17:02:22.244Z,784.00
2019-03-15T17:04:15.137Z,716.00
2019-03-15T17:05:15.153Z,688.00
2019-03-15T17:07:08.552Z,576.00
2019-03-15T17:08:08.557Z,496.00
2019-03-15T17:10:01.467Z,512.00
2019-03-15T17:11:01.473Z,488.00
2019-03-15T17:12:55.825Z,452.00
2019-03-15T17:13:54.391Z,436.00
2019-03-15T17:15:47.330Z,364.00
2019-03-15T17:16:47.329Z,332.00
2019-03-15T17:18:40.218Z,268.00
2019-03-15T17:19:40.211Z,248.00
2019-03-15T17:21:33.119Z,216.00
2019-03-15T17:22:33.124Z,212.00
2019-03-15T17:24:26.033Z,200.00
2019-03-15T17:25:26.036Z,188.00
2019-03-15T17:27:19.093Z,156.00
2019-03-15T17:28:19.093Z,144.00
2019-03-15T17:30:12.001Z,128.00
2019-03-15T17:31:12.010Z,120.00
2019-03-15T17:33:06.305Z,100.00
2019-03-15T17:34:04.924Z,92.00
2019-03-15T17:35:57.831Z,76.00
2019-03-15T17:37:06.406Z,68.00
2019-03-15T17:38:50.729Z,52.00
2019-03-15T17:39:50.867Z,44.00
2019-03-15T17:41:43.664Z,32.00
2019-03-15T17:42:43.663Z,28.00
2019-03-15T17:44:37.065Z,24.00
2019-03-15T17:45:37.074Z,16.00
2019-03-15T17:47:32.166Z,16.00
2019-03-15T17:48:30.477Z,8.00
2019-03-15T17:50:23.890Z,8.00
2019-03-15T17:51:23.905Z,4.00
2019-03-15T17:53:16.791Z,4.00
2019-03-15T17:54:16.798Z,4.00
2019-03-15T17:56:10.219Z,4.00
2019-03-15T17:57:10.233Z,4.00
2019-03-15T17:59:12.273Z,0.00
2019-03-15T18:00:03.626Z,0.00
2019-03-15T18:01:57.026Z,0.00